Stella Ada — 9V9082 — position and weather

sailwx.info

Track history (hours):
 
Tides and Currents Weather Stations Pressure Air Temp Water Temp Dewpoint Dewpoint Depression Visibility Wind Speed Wind Dir Waves Ship Positions

Stella Ada

Last reported at 2016-May-26 19:33 UTC. Time now 2016-May-26 22:33 UTC.
Position S 20°07' E 117°24'.

Length 296 m; draft 18.1 m.

Type: Cargo ship. MMSI: 566089000.

Date/timePositionNaut miles runAvg speedWind from/ knotsBaromVisibWave heightAir tempDewpointWater temp
2016-May-26 19:33S 20°07' E 117°24'1211.9
2016-May-26 18:33S 20°18' E 117°26'10 9.5
2016-May-26 17:30S 20°28' E 117°23'1010.4
2016-May-26 16:33S 20°33' E 117°14'2 2.3
2016-May-26 15:31S 20°35' E 117°12'0 0.0
2016-May-26 14:25S 20°35' E 117°12'0 0.0
2016-May-26 12:19S 20°35' E 117°12'0 0.0
2016-May-26 10:07S 20°35' E 117°12'0 0.0
2016-May-26 03:13S 20°35' E 117°12'0 0.0
2016-May-26 00:31S 20°35' E 117°12'0 0.0
2016-May-25 23:25S 20°35' E 117°12'0 0.0
2016-May-25 22:31S 20°35' E 117°12'0 0.0
2016-May-25 21:31S 20°35' E 117°12'0 0.0
2016-May-25 16:31S 20°35' E 117°12'0 0.0
2016-May-25 14:31S 20°35' E 117°12'0 0.0
2016-May-25 13:31S 20°35' E 117°12'0 0.0
2016-May-25 12:31S 20°35' E 117°12'0 0.0
2016-May-25 10:31S 20°35' E 117°12'0 0.0
2016-May-25 09:31S 20°35' E 117°12'0 0.0
2016-May-25 08:13S 20°35' E 117°12'0 0.0
2016-May-25 07:31S 20°35' E 117°12'0 0.0
2016-May-25 06:19S 20°35' E 117°12'0 0.0
2016-May-25 05:13S 20°35' E 117°12'1 1.2
2016-May-25 04:32S 20°35' E 117°13'5 4.7
2016-May-25 03:33S 20°31' E 117°16'2 1.5
2016-May-25 02:28S 20°30' E 117°18'0 0.0
2016-May-24 20:22S 20°30' E 117°17'0 0.1
2016-May-24 16:22S 20°30' E 117°18'0 0.0
2016-May-24 15:22S 20°30' E 117°18'0 0.0
2016-May-24 13:22S 20°30' E 117°18'0 0.1
2016-May-24 12:28S 20°30' E 117°18'0 0.1
2016-May-24 10:16S 20°30' E 117°17'3 3.9
2016-May-24 09:31S 20°31' E 117°20'10 9.9
2016-May-24 08:33S 20°23' E 117°27'1512.8
2016-May-24 07:23S 20°09' E 117°25'  
Track history (hours):
 
Tides and Currents Weather Stations Pressure Air Temp Water Temp Dewpoint Dewpoint Depression Visibility Wind Speed Wind Dir Waves Ship Positions

Stella Ada

Last reported at 2016-May-26 19:33 UTC. Time now 2016-May-26 22:33 UTC.
Position S 20°07' E 117°24'.

Length 296 m; draft 18.1 m.

Type: Cargo ship. MMSI: 566089000.

Date/timePositionNaut miles runAvg speedWind from/ knotsBaromVisibWave heightAir tempDewpointWater temp
2016-May-26 19:33S 20°07' E 117°24'1211.9
2016-May-26 18:33S 20°18' E 117°26'10 9.5
2016-May-26 17:30S 20°28' E 117°23'1010.4
2016-May-26 16:33S 20°33' E 117°14'2 2.3
2016-May-26 15:31S 20°35' E 117°12'0 0.0
2016-May-26 14:25S 20°35' E 117°12'0 0.0
2016-May-26 12:19S 20°35' E 117°12'0 0.0
2016-May-26 10:07S 20°35' E 117°12'0 0.0
2016-May-26 03:13S 20°35' E 117°12'0 0.0
2016-May-26 00:31S 20°35' E 117°12'0 0.0
2016-May-25 23:25S 20°35' E 117°12'0 0.0
2016-May-25 22:31S 20°35' E 117°12'0 0.0
2016-May-25 21:31S 20°35' E 117°12'0 0.0
2016-May-25 16:31S 20°35' E 117°12'0 0.0
2016-May-25 14:31S 20°35' E 117°12'0 0.0
2016-May-25 13:31S 20°35' E 117°12'0 0.0
2016-May-25 12:31S 20°35' E 117°12'0 0.0
2016-May-25 10:31S 20°35' E 117°12'0 0.0
2016-May-25 09:31S 20°35' E 117°12'0 0.0
2016-May-25 08:13S 20°35' E 117°12'0 0.0
2016-May-25 07:31S 20°35' E 117°12'0 0.0
2016-May-25 06:19S 20°35' E 117°12'0 0.0
2016-May-25 05:13S 20°35' E 117°12'1 1.2
2016-May-25 04:32S 20°35' E 117°13'5 4.7
2016-May-25 03:33S 20°31' E 117°16'2 1.5
2016-May-25 02:28S 20°30' E 117°18'0 0.0
2016-May-24 20:22S 20°30' E 117°17'0 0.1
2016-May-24 16:22S 20°30' E 117°18'0 0.0
2016-May-24 15:22S 20°30' E 117°18'0 0.0
2016-May-24 13:22S 20°30' E 117°18'0 0.1
2016-May-24 12:28S 20°30' E 117°18'0 0.1
2016-May-24 10:16S 20°30' E 117°17'3 3.9
2016-May-24 09:31S 20°31' E 117°20'10 9.9
2016-May-24 08:33S 20°23' E 117°27'1512.8
2016-May-24 07:23S 20°09' E 117°25'  

Dump ship's entire track history